Time;durP1;ratioP1;P1;durP2;ratioP2;P2;SDS_P1;SDS_P2;PMS_P1;PMS_P2;Temp;Humidity;BMP_temperature;BMP_pressure;BME280_temperature;BME280_humidity;BME280_pressure;Samples;Min_cycle;Max_cycle;Signal;HPM_P1;HPM_P2
2024/04/04 00:01:52;;;;;;;;;;;;;;;11.90;100.00;97410.47;5062274;28;19990;-48
2024/04/04 00:04:17;;;;;;;;;;;;;;;12.02;100.00;97413.03;5059898;28;19927;-47
2024/04/04 00:06:43;;;;;;;;;;;;;;;11.96;100.00;97405.66;5063347;28;19958;-47
2024/04/04 00:09:08;;;;;;;;;;;;;;;11.98;100.00;97413.38;5060640;28;19973;-47
2024/04/04 00:11:33;;;;;;;;;;;;;;;12.04;100.00;97412.94;5059262;28;20304;-47
2024/04/04 00:13:59;;;;;;;;;;;;;;;12.10;100.00;97408.09;5061980;28;20357;-47
2024/04/04 00:16:24;;;;;;;;;;;;;;;12.15;100.00;97410.38;5061745;28;19968;-47
2024/04/04 00:18:49;;;;;;;;;;;;;;;12.13;100.00;97414.88;5062334;28;19927;-47
2024/04/04 00:21:14;;;;;;;;;;;;;;;12.22;100.00;97414.22;5058682;28;19934;-47
2024/04/04 00:23:40;;;;;;;;;;;;;;;12.23;100.00;97410.69;5056146;28;20367;-46
2024/04/04 00:26:05;;;;;;;;;;;;;;;12.29;100.00;97412.81;5065402;28;19936;-47
2024/04/04 00:28:34;;;;;;;;;;;;;;;12.24;100.00;97405.31;5063489;28;19943;-47
2024/04/04 00:30:59;;;;;;;;;;;;;;;12.29;100.00;97412.81;5061816;28;19974;-47
2024/04/04 00:33:24;;;;;;;;;;;;;;;12.12;100.00;97408.00;5058227;28;20288;-47
2024/04/04 00:35:50;;;;;;;;;;;;;;;12.15;100.00;97405.16;5061485;28;19917;-47
2024/04/04 00:38:15;;;;;;;;;;;;;;;12.19;100.00;97414.44;5058542;28;19912;-47
2024/04/04 00:40:40;;;;;;;;;;;;;;;12.10;100.00;97412.50;5056879;28;19931;-47
2024/04/04 00:43:05;;;;;;;;;;;;;;;12.10;100.00;97415.09;5063634;28;19938;-47
2024/04/04 00:45:31;;;;;;;;;;;;;;;12.00;100.00;97421.91;5062620;28;19921;-47
2024/04/04 00:47:57;;;;;;;;;;;;;;;11.96;100.00;97417.88;5064688;28;20030;-48
2024/04/04 00:50:22;;;;;;;;;;;;;;;11.99;100.00;97417.63;5058736;28;19965;-47
2024/04/04 00:52:48;;;;;;;;;;;;;;;11.91;100.00;97428.59;5059807;28;19923;-46
2024/04/04 00:55:13;;;;;;;;;;;;;;;11.91;100.00;97438.22;5063651;28;19925;-47
2024/04/04 00:57:39;;;;;;;;;;;;;;;11.81;100.00;97438.03;5065621;28;20023;-47
2024/04/04 01:00:04;;;;;;;;;;;;;;;11.85;100.00;97433.44;5058158;28;20256;-47
2024/04/04 01:02:30;;;;;;;;;;;;;;;11.86;100.00;97445.53;5061869;28;19982;-47
2024/04/04 01:04:55;;;;;;;;;;;;;;;11.76;100.00;97442.72;5059173;28;19981;-47
2024/04/04 01:07:21;;;;;;;;;;;;;;;11.90;100.00;97449.59;5063115;28;19935;-48
2024/04/04 01:09:46;;;;;;;;;;;;;;;11.83;100.00;97450.97;5056604;28;19916;-47
2024/04/04 01:12:11;;;;;;;;;;;;;;;11.76;100.00;97454.94;5058283;28;20393;-47
2024/04/04 01:14:36;;;;;;;;;;;;;;;11.70;100.00;97455.38;5060864;28;19927;-47
2024/04/04 01:17:02;;;;;;;;;;;;;;;11.73;100.00;97455.13;5058568;28;19927;-48
2024/04/04 01:19:27;;;;;;;;;;;;;;;11.58;100.00;97451.81;5056260;28;19954;-47
2024/04/04 01:21:52;;;;;;;;;;;;;;;11.59;100.00;97452.66;5059308;28;19950;-47
2024/04/04 01:24:18;;;;;;;;;;;;;;;11.56;100.00;97453.66;5061295;28;19928;-47
2024/04/04 01:26:43;;;;;;;;;;;;;;;11.58;100.00;97445.78;5056812;28;19957;-48
2024/04/04 01:29:08;;;;;;;;;;;;;;;11.56;100.00;97442.44;5058812;28;19965;-47
2024/04/04 01:31:33;;;;;;;;;;;;;;;11.56;100.00;97448.44;5062472;28;20034;-48
2024/04/04 01:33:58;;;;;;;;;;;;;;;11.47;100.00;97443.03;5058218;28;19938;-47
2024/04/04 01:36:24;;;;;;;;;;;;;;;11.67;100.00;97445.97;5063634;28;19916;-46
2024/04/04 01:38:50;;;;;;;;;;;;;;;11.77;100.00;97446.19;5060969;28;20025;-48
2024/04/04 01:41:15;;;;;;;;;;;;;;;11.71;100.00;97437.00;5060458;28;20366;-48
2024/04/04 01:43:41;;;;;;;;;;;;;;;11.64;100.00;97440.16;5061628;28;20122;-47
2024/04/04 01:46:06;;;;;;;;;;;;;;;11.74;100.00;97441.16;5066558;28;19943;-47
2024/04/04 01:48:31;;;;;;;;;;;;;;;11.64;100.00;97440.16;5064747;28;19965;-47
2024/04/04 01:50:56;;;;;;;;;;;;;;;11.57;100.00;97431.06;5063007;28;20007;-47
2024/04/04 01:53:21;;;;;;;;;;;;;;;11.62;100.00;97431.56;5064719;28;20046;-47
2024/04/04 01:55:47;;;;;;;;;;;;;;;11.58;100.00;97435.34;5059327;28;20325;-47
2024/04/04 01:58:12;;;;;;;;;;;;;;;11.62;100.00;97426.38;5066649;28;19938;-47
2024/04/04 02:00:38;;;;;;;;;;;;;;;11.63;100.00;97428.06;5063597;28;19934;-47
2024/04/04 02:03:04;;;;;;;;;;;;;;;11.64;100.00;97434.94;5066017;28;19957;-47
2024/04/04 02:05:30;;;;;;;;;;;;;;;11.72;100.00;97432.63;5068244;28;19937;-47
2024/04/04 02:07:56;;;;;;;;;;;;;;;11.78;100.00;97425.19;5068534;28;19960;-47
2024/04/04 02:10:21;;;;;;;;;;;;;;;11.80;100.00;97422.47;5065528;28;20652;-46
2024/04/04 02:12:47;;;;;;;;;;;;;;;11.98;100.00;97415.97;5064672;28;20067;-47
2024/04/04 02:15:14;;;;;;;;;;;;;;;11.93;100.00;97410.25;5060923;28;19923;-49
2024/04/04 02:17:40;;;;;;;;;;;;;;;11.96;100.00;97415.28;5059337;28;19953;-49
2024/04/04 02:20:05;;;;;;;;;;;;;;;11.92;100.00;97424.22;5060242;28;20025;-46
2024/04/04 02:22:31;;;;;;;;;;;;;;;11.89;100.00;97419.22;5059633;28;19921;-47
2024/04/04 02:24:56;;;;;;;;;;;;;;;11.91;100.00;97427.78;5071138;28;19923;-48
2024/04/04 02:27:22;;;;;;;;;;;;;;;12.07;100.00;97423.13;5059529;28;19942;-47
2024/04/04 02:29:47;;;;;;;;;;;;;;;12.00;100.00;97417.53;5068608;28;19941;-47
2024/04/04 02:32:12;;;;;;;;;;;;;;;12.01;100.00;97423.56;5067850;28;19955;-47
2024/04/04 02:34:37;;;;;;;;;;;;;;;11.93;100.00;97415.47;5065126;28;19992;-49
2024/04/04 02:37:03;;;;;;;;;;;;;;;11.92;100.00;97411.19;5060971;28;19987;-47
2024/04/04 02:39:28;;;;;;;;;;;;;;;11.83;100.00;97411.84;5063848;28;20309;-47
2024/04/04 02:41:53;;;;;;;;;;;;;;;11.85;100.00;97412.56;5061019;28;20374;-47
2024/04/04 02:44:19;;;;;;;;;;;;;;;11.91;100.00;97414.75;5059052;28;19956;-47
2024/04/04 02:46:44;;;;;;;;;;;;;;;11.95;100.00;97413.56;5058088;28;19927;-47
2024/04/04 02:49:09;;;;;;;;;;;;;;;11.94;100.00;97417.13;5060066;28;19930;-49
2024/04/04 02:51:35;;;;;;;;;;;;;;;11.88;100.00;97417.56;5062672;28;19950;-47
2024/04/04 02:54:00;;;;;;;;;;;;;;;11.85;100.00;97415.19;5060681;28;19912;-48
2024/04/04 02:56:25;;;;;;;;;;;;;;;11.87;100.00;97414.13;5058615;28;19946;-48
2024/04/04 02:58:50;;;;;;;;;;;;;;;11.84;100.00;97431.78;5065128;28;20436;-47
2024/04/04 03:01:16;;;;;;;;;;;;;;;11.77;100.00;97426.13;5070951;28;19935;-47
2024/04/04 03:03:41;;;;;;;;;;;;;;;11.84;100.00;97423.94;5073999;28;19913;-47
2024/04/04 03:06:06;;;;;;;;;;;;;;;11.97;100.00;97419.53;5071661;28;20276;-47
2024/04/04 03:08:32;;;;;;;;;;;;;;;11.96;100.00;97420.47;5069726;28;20269;-48
2024/04/04 03:10:57;;;;;;;;;;;;;;;11.93;100.00;97418.91;5073159;28;19938;-47
2024/04/04 03:13:22;;;;;;;;;;;;;;;11.93;100.00;97420.69;5073380;28;19954;-47
2024/04/04 03:15:57;;;;;;;;;;;;;;;11.88;100.00;97415.78;5073408;28;19923;-47
2024/04/04 03:18:22;;;;;;;;;;;;;;;11.85;100.00;97417.78;5067659;28;20393;-47
2024/04/04 03:20:47;;;;;;;;;;;;;;;11.89;100.00;97414.00;5059327;28;19923;-48
2024/04/04 03:23:13;;;;;;;;;;;;;;;11.79;100.00;97411.25;5067578;28;20141;-46
2024/04/04 03:25:38;;;;;;;;;;;;;;;11.87;100.00;97405.47;5062056;28;19946;-47
2024/04/04 03:28:03;;;;;;;;;;;;;;;11.91;100.00;97414.75;5071736;28;19933;-47
2024/04/04 03:30:28;;;;;;;;;;;;;;;11.95;100.00;97413.56;5063693;28;20377;-47
2024/04/04 03:32:54;;;;;;;;;;;;;;;11.98;100.00;97410.75;5068061;28;19924;-47
2024/04/04 03:35:19;;;;;;;;;;;;;;;11.93;100.00;97405.88;5071899;28;20275;-47
2024/04/04 03:37:44;;;;;;;;;;;;;;;11.98;100.00;97413.38;5067070;28;19943;-47
2024/04/04 03:40:09;;;;;;;;;;;;;;;11.95;100.00;97408.34;5064514;28;20097;-48
2024/04/04 03:42:36;;;;;;;;;;;;;;;11.90;100.00;97398.25;5064853;28;19923;-47
2024/04/04 03:45:02;;;;;;;;;;;;;;;11.87;100.00;97405.47;5066697;28;20385;-47
2024/04/04 03:47:27;;;;;;;;;;;;;;;11.80;100.00;97405.09;5058650;28;20362;-46
2024/04/04 03:49:52;;;;;;;;;;;;;;;11.73;100.00;97411.66;5071550;28;19929;-47
2024/04/04 03:52:18;;;;;;;;;;;;;;;11.71;100.00;97410.09;5067662;28;20304;-47
2024/04/04 03:54:43;;;;;;;;;;;;;;;11.63;100.00;97412.44;5065261;28;20338;-47
2024/04/04 03:57:08;;;;;;;;;;;;;;;11.64;100.00;97408.88;5057071;28;19933;-47
2024/04/04 03:59:33;;;;;;;;;;;;;;;11.46;100.00;97407.50;5062945;28;19997;-47
2024/04/04 04:01:59;;;;;;;;;;;;;;;11.54;100.00;97410.41;5053789;28;20313;-46
2024/04/04 04:04:25;;;;;;;;;;;;;;;11.75;100.00;97411.53;5061591;28;20342;-47
2024/04/04 04:06:50;;;;;;;;;;;;;;;11.58;100.00;97414.50;5067872;28;19935;-47
2024/04/04 04:09:16;;;;;;;;;;;;;;;11.59;100.00;97416.16;5061344;28;19986;-47
2024/04/04 04:11:41;;;;;;;;;;;;;;;11.50;100.00;97415.00;5059902;28;19928;-47
2024/04/04 04:14:07;;;;;;;;;;;;;;;11.50;100.00;97416.78;5058537;28;20424;-47
2024/04/04 04:16:32;;;;;;;;;;;;;;;11.46;100.00;97420.53;5064556;28;20020;-46
2024/04/04 04:18:58;;;;;;;;;;;;;;;11.50;100.00;97415.00;5066311;28;20344;-47
2024/04/04 04:21:26;;;;;;;;;;;;;;;11.50;100.00;97422.00;5068862;28;20293;-47
2024/04/04 04:23:53;;;;;;;;;;;;;;;11.50;100.00;97428.03;5066557;28;19912;-47
2024/04/04 04:26:18;;;;;;;;;;;;;;;11.47;100.00;97433.47;5068693;28;19943;-46
2024/04/04 04:28:44;;;;;;;;;;;;;;;11.44;100.00;97427.63;5060489;28;19982;-47
2024/04/04 04:31:21;;;;;;;;;;;;;;;11.40;100.00;97428.75;5063365;28;20267;-47
2024/04/04 04:33:47;;;;;;;;;;;;;;;11.39;100.00;97424.50;5069664;28;19931;-49
2024/04/04 04:36:12;;;;;;;;;;;;;;;11.39;100.00;97429.72;5057454;28;20366;-47
2024/04/04 04:38:37;;;;;;;;;;;;;;;11.42;100.00;97425.13;5062234;28;19912;-47
2024/04/04 04:41:03;;;;;;;;;;;;;;;11.34;100.00;97422.22;5061735;28;20382;-47
2024/04/04 04:43:29;;;;;;;;;;;;;;;11.40;100.00;97426.16;5063955;28;19916;-47
2024/04/04 04:45:54;;;;;;;;;;;;;;;11.32;100.00;97415.44;5061911;28;20782;-47
2024/04/04 04:48:19;;;;;;;;;;;;;;;11.35;100.00;97421.28;5060225;28;19956;-48
2024/04/04 04:50:44;;;;;;;;;;;;;;;11.33;100.00;97414.50;5054932;28;19928;-47
2024/04/04 04:53:09;;;;;;;;;;;;;;;11.30;100.00;97415.53;5057909;28;19976;-47
2024/04/04 04:55:35;;;;;;;;;;;;;;;11.14;100.00;97412.31;5062915;28;19970;-47
2024/04/04 04:58:00;;;;;;;;;;;;;;;11.30;100.00;97412.13;5063163;28;19924;-46
2024/04/04 05:00:25;;;;;;;;;;;;;;;11.28;100.00;97412.22;5061201;28;20346;-46
2024/04/04 05:02:51;;;;;;;;;;;;;;;11.30;100.00;97404.31;5063052;28;19939;-46
2024/04/04 05:05:17;;;;;;;;;;;;;;;11.51;100.00;97415.84;5058538;28;20017;-47
2024/04/04 05:07:43;;;;;;;;;;;;;;;11.48;100.00;97413.44;5058600;28;20032;-47
2024/04/04 05:10:08;;;;;;;;;;;;;;;11.32;100.00;97407.63;5059084;28;19936;-47
2024/04/04 05:12:34;;;;;;;;;;;;;;;11.35;100.00;97417.81;5052833;28;19982;-46
2024/04/04 05:14:59;;;;;;;;;;;;;;;11.44;100.00;97407.59;5053988;28;19930;-46
2024/04/04 05:17:24;;;;;;;;;;;;;;;11.53;100.00;97406.97;5064127;28;19940;-47
2024/04/04 05:19:49;;;;;;;;;;;;;;;11.61;100.00;97403.84;5065213;28;20343;-46
2024/04/04 05:22:14;;;;;;;;;;;;;;;11.54;100.00;97397.38;5059209;28;20264;-46
2024/04/04 05:24:40;;;;;;;;;;;;;;;11.58;100.00;97396.25;5065942;28;20000;-46
2024/04/04 05:27:05;;;;;;;;;;;;;;;11.60;100.00;97407.41;5061662;28;19938;-47
2024/04/04 05:29:30;;;;;;;;;;;;;;;11.60;100.00;97400.44;5070919;28;19917;-46
2024/04/04 05:31:55;;;;;;;;;;;;;;;11.80;100.00;97402.47;5061659;28;19920;-46
2024/04/04 05:34:22;;;;;;;;;;;;;;;11.77;100.00;97396.66;5068615;28;19945;-46
2024/04/04 05:36:47;;;;;;;;;;;;;;;11.90;100.00;97394.84;5062994;28;19999;-46
2024/04/04 05:39:13;;;;;;;;;;;;;;;12.00;100.00;97393.22;5054966;28;20524;-46
2024/04/04 05:41:38;;;;;;;;;;;;;;;12.16;100.00;97393.81;5056542;28;19939;-47
2024/04/04 05:44:03;;;;;;;;;;;;;;;12.40;100.00;97394.63;5058007;28;20397;-46
2024/04/04 05:46:29;;;;;;;;;;;;;;;12.45;100.00;97389.91;5056768;28;19940;-46
2024/04/04 05:48:56;;;;;;;;;;;;;;;12.54;100.00;97391.81;5058791;28;19981;-47
2024/04/04 05:51:21;;;;;;;;;;;;;;;12.74;100.00;97394.63;5060270;28;19972;-46
2024/04/04 05:53:46;;;;;;;;;;;;;;;12.71;100.00;97397.47;5054588;28;20054;-49
2024/04/04 05:56:12;;;;;;;;;;;;;;;12.79;100.00;97402.13;5064630;28;19946;-46
2024/04/04 05:58:37;;;;;;;;;;;;;;;12.98;100.00;97389.38;5059661;28;19940;-48
2024/04/04 06:01:02;;;;;;;;;;;;;;;13.55;100.00;97385.75;5062740;28;20061;-49
2024/04/04 06:03:27;;;;;;;;;;;;;;;14.14;100.00;97391.47;5065293;28;20365;-48
2024/04/04 06:05:53;;;;;;;;;;;;;;;14.51;100.00;97395.44;5064210;28;20419;-46
2024/04/04 06:08:18;;;;;;;;;;;;;;;14.70;100.00;97390.38;5062166;28;20247;-48
2024/04/04 06:10:43;;;;;;;;;;;;;;;15.15;98.45;97386.53;5064782;28;21354;-47
2024/04/04 06:13:08;;;;;;;;;;;;;;;15.36;96.74;97392.63;5064663;28;19948;-48
2024/04/04 06:15:33;;;;;;;;;;;;;;;15.84;93.58;97383.16;5069272;28;20355;-47
2024/04/04 06:17:59;;;;;;;;;;;;;;;16.03;90.99;97385.84;5058716;28;20470;-45
2024/04/04 06:20:24;;;;;;;;;;;;;;;15.79;89.70;97374.84;5067004;28;20348;-46
2024/04/04 06:22:49;;;;;;;;;;;;;;;15.82;90.81;97371.97;5070804;28;20024;-46
2024/04/04 06:25:15;;;;;;;;;;;;;;;15.79;90.77;97374.84;5069549;28;20022;-46
2024/04/04 06:27:41;;;;;;;;;;;;;;;15.23;91.81;97373.63;5073320;28;19948;-45
2024/04/04 06:30:07;;;;;;;;;;;;;;;15.35;91.33;97367.38;5065526;28;19950;-46
2024/04/04 06:32:35;;;;;;;;;;;;;;;15.77;89.38;97363.66;5057944;28;19917;-45
2024/04/04 06:35:00;;;;;;;;;;;;;;;15.56;87.84;97355.03;5064171;28;20060;-46
2024/04/04 06:37:26;;;;;;;;;;;;;;;16.72;83.94;97355.94;5068571;28;20603;-46
2024/04/04 06:39:51;;;;;;;;;;;;;;;18.04;78.19;97355.50;5065122;28;19923;-46
2024/04/04 06:42:16;;;;;;;;;;;;;;;18.83;73.35;97359.09;5070204;28;20271;-48
2024/04/04 06:44:41;;;;;;;;;;;;;;;20.42;67.34;97361.81;5066662;28;19924;-46
2024/04/04 06:47:07;;;;;;;;;;;;;;;19.47;67.55;97367.50;5073119;28;19938;-46
2024/04/04 06:49:32;;;;;;;;;;;;;;;19.20;70.49;97371.16;5070605;28;19960;-46
2024/04/04 06:51:57;;;;;;;;;;;;;;;18.79;71.22;97371.75;5072211;28;19970;-46
2024/04/04 06:54:23;;;;;;;;;;;;;;;18.73;71.98;97377.63;5066272;28;19935;-46
2024/04/04 06:56:48;;;;;;;;;;;;;;;18.67;72.16;97375.63;5069754;28;20385;-46
2024/04/04 06:59:13;;;;;;;;;;;;;;;18.73;71.53;97369.72;5065280;28;20470;-47
2024/04/04 07:01:39;;;;;;;;;;;;;;;19.11;70.44;97372.00;5063241;28;20238;-46
2024/04/04 07:04:05;;;;;;;;;;;;;;;19.38;68.95;97369.25;5067709;28;19969;-46
2024/04/04 07:06:30;;;;;;;;;;;;;;;18.39;70.55;97368.75;5063954;28;19939;-46
2024/04/04 07:08:55;;;;;;;;;;;;;;;18.68;71.34;97369.38;5064231;28;19925;-45
2024/04/04 07:11:21;;;;;;;;;;;;;;;18.60;70.35;97376.38;5074267;28;19962;-46
2024/04/04 07:13:48;;;;;;;;;;;;;;;19.05;69.93;97366.53;5074663;28;21246;-46
2024/04/04 07:16:13;;;;;;;;;;;;;;;19.91;66.47;97376.97;5065991;28;19932;-46
2024/04/04 07:18:38;;;;;;;;;;;;;;;19.77;65.85;97374.94;5064640;28;20277;-46
2024/04/04 07:21:06;;;;;;;;;;;;;;;19.50;65.63;97383.84;5065306;28;19920;-45
2024/04/04 07:23:31;;;;;;;;;;;;;;;18.58;68.47;97378.34;5064452;28;19938;-45
2024/04/04 07:25:57;;;;;;;;;;;;;;;18.99;67.52;97388.25;5070029;28;19963;-46
2024/04/04 07:28:22;;;;;;;;;;;;;;;18.83;67.97;97382.81;5066878;28;20300;-46
2024/04/04 07:30:48;;;;;;;;;;;;;;;18.61;69.53;97385.94;5063685;28;19921;-45
2024/04/04 07:33:13;;;;;;;;;;;;;;;18.22;70.95;97387.97;5064646;28;19947;-46
2024/04/04 07:35:39;;;;;;;;;;;;;;;17.77;72.61;97387.09;5069667;28;19917;-45
2024/04/04 07:38:05;;;;;;;;;;;;;;;17.35;73.97;97385.84;5064973;28;20275;-46
2024/04/04 07:40:33;;;;;;;;;;;;;;;17.18;74.88;97405.00;5069311;28;19936;-45
2024/04/04 07:42:58;;;;;;;;;;;;;;;17.25;75.60;97411.34;5065964;28;20361;-46
2024/04/04 07:45:23;;;;;;;;;;;;;;;16.90;75.08;97419.97;5064147;28;19959;-45
2024/04/04 07:47:50;;;;;;;;;;;;;;;16.77;76.63;97419.44;5073111;28;19934;-45
2024/04/04 07:50:16;;;;;;;;;;;;;;;16.60;77.33;97433.22;5073430;28;19920;-45
2024/04/04 07:52:41;;;;;;;;;;;;;;;16.46;79.13;97421.34;5066928;28;19971;-47
2024/04/04 07:55:07;;;;;;;;;;;;;;;16.21;80.19;97428.84;5060599;28;19920;-46
2024/04/04 07:57:32;;;;;;;;;;;;;;;15.96;81.82;97431.97;5062177;28;19930;-46
2024/04/04 07:59:57;;;;;;;;;;;;;;;15.92;84.48;97431.41;5072823;28;19934;-43
2024/04/04 08:02:23;;;;;;;;;;;;;;;15.75;87.19;97432.00;5063960;28;19927;-43
2024/04/04 08:04:49;;;;;;;;;;;;;;;15.83;87.78;97432.19;5061878;28;20306;-44
2024/04/04 08:07:15;;;;;;;;;;;;;;;15.83;87.09;97436.63;5062999;28;19939;-45
2024/04/04 08:09:43;;;;;;;;;;;;;;;15.71;86.91;97442.91;5073502;28;20027;-44
2024/04/04 08:12:09;;;;;;;;;;;;;;;15.75;86.87;97449.56;5072428;28;20269;-44
2024/04/04 08:14:36;;;;;;;;;;;;;;;15.64;87.39;97447.03;5066801;28;20377;-44
2024/04/04 08:17:01;;;;;;;;;;;;;;;15.62;87.34;97452.38;5065701;28;19930;-46
2024/04/04 08:19:27;;;;;;;;;;;;;;;15.60;87.41;97456.09;5069692;28;19966;-45
2024/04/04 08:21:52;;;;;;;;;;;;;;;15.63;87.73;97461.09;5070304;28;19935;-44
2024/04/04 08:24:19;;;;;;;;;;;;;;;15.51;89.51;97464.75;5064472;28;19930;-45
2024/04/04 08:26:44;;;;;;;;;;;;;;;15.55;89.68;97468.81;5067895;28;19931;-45
2024/04/04 08:29:10;;;;;;;;;;;;;;;15.48;90.68;97462.38;5066949;28;20261;-44
2024/04/04 08:31:37;;;;;;;;;;;;;;;15.26;91.78;97467.72;5066832;28;19952;-44
2024/04/04 08:34:03;;;;;;;;;;;;;;;15.14;92.63;97468.75;5065643;28;19916;-44
2024/04/04 08:36:28;;;;;;;;;;;;;;;15.35;93.56;97472.25;5065701;28;19950;-44
2024/04/04 08:38:54;;;;;;;;;;;;;;;15.26;93.66;97472.97;5063417;28;19921;-44
2024/04/04 08:41:19;;;;;;;;;;;;;;;15.18;95.09;97476.25;5058874;28;20333;-44
2024/04/04 08:43:45;;;;;;;;;;;;;;;15.23;95.57;97476.69;5063575;28;20368;-44
2024/04/04 08:46:12;;;;;;;;;;;;;;;15.16;95.00;97477.34;5072345;28;19916;-44
2024/04/04 08:48:38;;;;;;;;;;;;;;;15.16;94.07;97472.09;5065775;28;19934;-44
2024/04/04 08:51:04;;;;;;;;;;;;;;;15.11;92.98;97466.41;5065649;28;19959;-44
2024/04/04 08:53:31;;;;;;;;;;;;;;;15.18;92.32;97471.00;5063518;28;20253;-44
2024/04/04 08:55:56;;;;;;;;;;;;;;;14.88;92.25;97464.81;5068127;28;19919;-45
2024/04/04 08:58:24;;;;;;;;;;;;;;;15.25;90.89;97466.06;5060208;28;20365;-45
2024/04/04 09:00:50;;;;;;;;;;;;;;;15.21;90.97;97464.66;5063984;28;20027;-45
2024/04/04 09:03:16;;;;;;;;;;;;;;;15.19;90.87;97466.59;5060351;28;20011;-45
2024/04/04 09:05:45;;;;;;;;;;;;;;;15.34;90.19;97470.56;5060632;28;19928;-45
2024/04/04 09:08:11;;;;;;;;;;;;;;;15.50;88.13;97460.47;5067367;28;19923;-45
2024/04/04 09:10:37;;;;;;;;;;;;;;;15.65;88.00;97467.03;5064608;28;19945;-45
2024/04/04 09:13:06;;;;;;;;;;;;;;;15.48;87.26;97465.00;5061296;28;19948;-44
2024/04/04 09:15:32;;;;;;;;;;;;;;;15.79;86.03;97462.28;5064187;28;20351;-45
2024/04/04 09:18:04;;;;;;;;;;;;;;;15.62;86.37;97464.69;5066458;28;19930;-45
2024/04/04 09:20:30;;;;;;;;;;;;;;;15.70;85.78;97464.88;5060622;28;20344;-45
2024/04/04 09:22:58;;;;;;;;;;;;;;;15.79;85.82;97456.19;5062945;28;20033;-44
2024/04/04 09:25:24;;;;;;;;;;;;;;;15.82;84.48;97466.44;5065059;28;20003;-45
2024/04/04 09:27:49;;;;;;;;;;;;;;;15.99;83.58;97463.19;5066235;28;20417;-45
2024/04/04 09:30:17;;;;;;;;;;;;;;;16.08;82.80;97459.75;5063325;28;19945;-45
2024/04/04 09:32:43;;;;;;;;;;;;;;;16.50;81.20;97463.94;5060526;28;20024;-45
2024/04/04 09:35:09;;;;;;;;;;;;;;;16.62;79.11;97473.38;5069603;28;20394;-45
2024/04/04 09:37:34;;;;;;;;;;;;;;;16.60;79.74;97470.88;5063832;28;20362;-44
2024/04/04 09:40:00;;;;;;;;;;;;;;;16.56;81.55;97472.09;5064648;28;19942;-44
2024/04/04 09:42:26;;;;;;;;;;;;;;;16.57;82.13;97465.06;5059932;28;20389;-45
2024/04/04 09:44:52;;;;;;;;;;;;;;;16.65;82.37;97473.06;5063012;28;20271;-45
2024/04/04 09:47:19;;;;;;;;;;;;;;;16.90;82.23;97470.72;5065560;28;20007;-45
2024/04/04 09:49:45;;;;;;;;;;;;;;;16.83;82.95;97476.69;5060362;28;19924;-44
2024/04/04 09:52:11;;;;;;;;;;;;;;;16.56;82.27;97469.47;5066530;28;20376;-44
2024/04/04 09:54:37;;;;;;;;;;;;;;;16.73;83.51;97465.34;5059957;28;19920;-44
2024/04/04 09:57:03;;;;;;;;;;;;;;;16.73;81.74;97466.19;5065721;28;20273;-45
2024/04/04 09:59:29;;;;;;;;;;;;;;;16.66;78.95;97470.31;5069685;28;19928;-44
2024/04/04 10:02:04;;;;;;;;;;;;;;;16.80;79.65;97482.22;5063540;28;19956;-45
2024/04/04 10:04:36;;;;;;;;;;;;;;;16.75;79.95;97479.19;5064214;28;19950;-44
2024/04/04 10:07:02;;;;;;;;;;;;;;;16.47;80.21;97482.56;5062070;28;19938;-44
2024/04/04 10:09:38;;;;;;;;;;;;;;;16.55;82.20;97482.75;5073915;28;19938;-45
2024/04/04 10:12:10;;;;;;;;;;;;;;;16.58;84.23;97498.22;5064383;28;19921;-45
2024/04/04 10:14:36;;;;;;;;;;;;;;;16.31;87.64;97500.63;5066113;28;19943;-46
2024/04/04 10:17:05;;;;;;;;;;;;;;;15.88;89.48;97484.28;5063121;28;19965;-44
2024/04/04 10:19:32;;;;;;;;;;;;;;;15.85;92.13;97487.16;5061928;28;20040;-44
2024/04/04 10:21:57;;;;;;;;;;;;;;;15.84;95.99;97475.00;5071898;28;20044;-44
2024/04/04 10:24:26;;;;;;;;;;;;;;;15.96;97.71;97476.59;5064000;28;20021;-44
2024/04/04 10:26:51;;;;;;;;;;;;;;;15.98;98.25;97482.53;5067097;28;19925;-45
2024/04/04 10:29:17;;;;;;;;;;;;;;;16.04;99.47;97479.38;5065838;28;19925;-44
2024/04/04 10:31:42;;;;;;;;;;;;;;;16.10;100.00;97491.97;5061990;28;19921;-45
2024/04/04 10:34:11;;;;;;;;;;;;;;;16.08;99.10;97472.88;5067483;28;19930;-45
2024/04/04 10:36:43;;;;;;;;;;;;;;;15.96;98.79;97484.47;5068034;28;19954;-44
2024/04/04 10:39:12;;;;;;;;;;;;;;;16.04;98.02;97485.44;5065938;28;19955;-46
2024/04/04 10:41:38;;;;;;;;;;;;;;;15.93;99.97;97480.31;5071501;28;19916;-44
2024/04/04 10:44:11;;;;;;;;;;;;;;;15.91;98.84;97481.41;5066181;28;20329;-44
2024/04/04 10:46:43;;;;;;;;;;;;;;;15.96;99.54;97484.47;5069109;28;20030;-45
2024/04/04 10:49:08;;;;;;;;;;;;;;;15.67;100.00;97488.72;5064638;28;19961;-45
2024/04/04 10:51:34;;;;;;;;;;;;;;;15.84;100.00;97488.13;5072366;28;19931;-45
2024/04/04 10:53:59;;;;;;;;;;;;;;;16.04;100.00;97488.06;5076412;28;20027;-46
2024/04/04 10:56:25;;;;;;;;;;;;;;;16.22;100.00;97490.94;5070480;28;19961;-46
2024/04/04 10:58:51;;;;;;;;;;;;;;;16.22;100.00;97496.19;5072776;28;19927;-47
2024/04/04 11:01:16;;;;;;;;;;;;;;;16.27;100.00;97491.34;5067051;28;19934;-45
2024/04/04 11:03:42;;;;;;;;;;;;;;;16.31;100.00;97484.88;5067188;28;19933;-45
2024/04/04 11:06:07;;;;;;;;;;;;;;;16.52;100.00;97475.13;5064120;28;20189;-45
2024/04/04 11:08:32;;;;;;;;;;;;;;;16.67;99.69;97482.50;5069010;28;20029;-46
2024/04/04 11:10:58;;;;;;;;;;;;;;;17.67;94.53;97477.63;5063813;28;20019;-46
2024/04/04 11:13:24;;;;;;;;;;;;;;;17.86;93.25;97467.84;5063255;28;19929;-45
2024/04/04 11:15:49;;;;;;;;;;;;;;;18.33;88.40;97464.19;5063393;28;19917;-45
2024/04/04 11:18:14;;;;;;;;;;;;;;;18.16;87.59;97459.69;5066393;28;19927;-45
2024/04/04 11:20:40;;;;;;;;;;;;;;;18.24;85.48;97462.44;5064275;28;19947;-45
2024/04/04 11:23:06;;;;;;;;;;;;;;;18.16;85.26;97457.06;5066360;28;20630;-45
2024/04/04 11:25:32;;;;;;;;;;;;;;;17.74;87.62;97460.28;5067174;28;19927;-45
2024/04/04 11:27:57;;;;;;;;;;;;;;;17.69;89.32;97463.34;5068252;28;20007;-45
2024/04/04 11:30:22;;;;;;;;;;;;;;;17.29;90.46;97465.34;5064415;28;20247;-46
2024/04/04 11:32:48;;;;;;;;;;;;;;;17.34;89.90;97476.28;5068944;28;19964;-45
2024/04/04 11:35:13;;;;;;;;;;;;;;;17.46;90.13;97484.88;5064218;28;19947;-46
2024/04/04 11:37:39;;;;;;;;;;;;;;;17.42;91.18;97481.69;5065005;28;19920;-46
2024/04/04 11:40:04;;;;;;;;;;;;;;;17.54;91.94;97485.84;5066650;28;19934;-48
2024/04/04 11:42:29;;;;;;;;;;;;;;;17.25;94.48;97479.72;5064157;28;20004;-45
2024/04/04 11:44:55;;;;;;;;;;;;;;;17.34;94.15;97484.16;5066810;28;19949;-45
2024/04/04 11:47:20;;;;;;;;;;;;;;;16.93;95.65;97484.44;5066890;28;20350;-45
2024/04/04 11:49:45;;;;;;;;;;;;;;;16.78;97.56;97489.41;5063951;28;20269;-45
2024/04/04 11:52:11;;;;;;;;;;;;;;;16.98;97.44;97481.41;5062861;28;19935;-47
2024/04/04 11:54:36;;;;;;;;;;;;;;;17.13;98.24;97488.72;5066026;28;19934;-46
2024/04/04 11:57:01;;;;;;;;;;;;;;;16.92;97.80;97489.00;5070458;28;19935;-43
2024/04/04 11:59:28;;;;;;;;;;;;;;;16.64;97.13;97493.25;5063082;28;19968;-43
2024/04/04 12:01:54;;;;;;;;;;;;;;;16.59;97.66;97497.25;5064173;28;19920;-43
2024/04/04 12:04:23;;;;;;;;;;;;;;;16.55;97.71;97488.00;5061995;28;19913;-46
2024/04/04 12:06:50;;;;;;;;;;;;;;;16.63;96.53;97501.28;5065570;28;20017;-43
2024/04/04 12:09:16;;;;;;;;;;;;;;;17.13;95.40;97503.69;5061954;28;20017;-43
2024/04/04 12:11:42;;;;;;;;;;;;;;;17.28;93.36;97504.94;5060722;28;20027;-42
2024/04/04 12:14:07;;;;;;;;;;;;;;;17.82;91.52;97510.41;5066139;28;20010;-45
2024/04/04 12:16:33;;;;;;;;;;;;;;;17.51;92.18;97507.16;5062851;28;20339;-43
2024/04/04 12:21:42;;;;;;;;;;;;;;;17.62;92.54;97507.00;5069946;28;19958;-43
2024/04/04 12:24:08;;;;;;;;;;;;;;;17.08;91.86;97505.09;5067439;28;20381;-42
2024/04/04 12:26:33;;;;;;;;;;;;;;;17.23;90.71;97499.25;5064432;28;20374;-43
2024/04/04 12:28:58;;;;;;;;;;;;;;;17.04;86.25;97493.97;5066341;28;19948;-44
2024/04/04 12:31:24;;;;;;;;;;;;;;;17.18;88.66;97497.03;5064035;28;20275;-44
2024/04/04 12:33:49;;;;;;;;;;;;;;;16.93;88.24;97505.47;5067913;28;20359;-44
2024/04/04 12:36:15;;;;;;;;;;;;;;;17.08;87.34;97501.47;5065215;28;19921;-44